KLEW/LEW METAR and TAF weather

Enter ICAO airport designator
Station Type Date Time Source
KLEW METAR 2019/08/24 19:56 UTC NOAA

KLEW 241956Z AUTO 02011KT 10SM OVC046 21/12 A3023 RMK AO2 SLP250 T02060117


Station Type Date Time Source
KLEW Decoded METAR 2019/08/24 19:56 UTC NOAA

Station name not available
Aug 24, 2019 - 03:56 PM EDT / 2019.08.24 1956 UTC
Wind: from the NNE (020 degrees) at 13 MPH (11 KT):0
Visibility: 10 mile(s):0
Sky conditions: overcast
Temperature: 69.1 F (20.6 C)
Dew Point: 53.1 F (11.7 C)
Relative Humidity: 56%
Pressure (altimeter): 30.23 in. Hg (1023 hPa)
ob: KLEW 241956Z AUTO 02011KT 10SM OVC046 21/12 A3023 RMK AO2 SLP250 T02060117
cycle: 20

Station Type Date Time Source
KLEW TAF UTC NOAA

Error!

Example: see airport list